createdAt,value
2022-08-12T00:02:04.624Z,21.61
2022-08-12T00:07:14.779Z,21.48
2022-08-12T00:12:36.341Z,21.45
2022-08-12T00:17:58.155Z,21.36
2022-08-12T00:23:18.589Z,21.39
2022-08-12T00:28:38.750Z,21.37
2022-08-12T00:33:58.787Z,21.14
2022-08-12T00:39:21.095Z,21.17
2022-08-12T00:44:24.061Z,21.25
2022-08-12T00:49:28.860Z,21.11
2022-08-12T00:54:32.120Z,21.05
2022-08-12T00:59:35.279Z,20.97
2022-08-12T01:04:57.614Z,20.93
2022-08-12T01:10:18.780Z,20.85
2022-08-12T01:15:34.332Z,20.79
2022-08-12T01:20:48.101Z,20.78
2022-08-12T01:25:56.312Z,20.70
2022-08-12T01:31:02.336Z,20.53
2022-08-12T01:36:07.820Z,20.43
2022-08-12T01:41:13.844Z,20.43
2022-08-12T01:46:37.343Z,20.37
2022-08-12T01:52:15.229Z,20.42
2022-08-12T01:57:16.681Z,20.38
2022-08-12T02:02:44.950Z,20.29
2022-08-12T02:08:26.993Z,20.26
2022-08-12T02:14:04.006Z,20.21
2022-08-12T02:19:36.212Z,20.29
2022-08-12T02:24:39.469Z,20.23
2022-08-12T02:29:41.280Z,20.22
2022-08-12T02:34:44.528Z,20.20
2022-08-12T02:39:49.970Z,20.12
2022-08-12T02:44:54.998Z,20.09
2022-08-12T02:49:58.665Z,20.06
2022-08-12T02:55:09.871Z,20.08
2022-08-12T03:00:13.395Z,20.09
2022-08-12T03:05:17.921Z,20.13
2022-08-12T03:10:37.227Z,20.05
2022-08-12T03:15:40.349Z,20.06
2022-08-12T03:20:42.197Z,19.93
2022-08-12T03:25:44.333Z,19.87
2022-08-12T03:30:54.752Z,19.85
2022-08-12T03:36:01.573Z,19.86
2022-08-12T03:41:35.466Z,19.80
2022-08-12T03:46:58.096Z,19.78
2022-08-12T03:52:18.903Z,19.83
2022-08-12T03:57:38.816Z,19.79
2022-08-12T04:02:42.733Z,19.71
2022-08-12T04:07:57.849Z,19.68
2022-08-12T04:13:19.845Z,19.68
2022-08-12T04:18:21.404Z,19.71
2022-08-12T04:23:24.076Z,19.63
2022-08-12T04:28:27.977Z,19.62
2022-08-12T04:33:32.249Z,19.57
2022-08-12T04:38:34.578Z,19.69
2022-08-12T04:44:00.702Z,19.80
2022-08-12T04:49:00.934Z,19.78
2022-08-12T04:54:04.811Z,19.74
2022-08-12T04:59:07.640Z,19.78
2022-08-12T05:04:10.636Z,19.63
2022-08-12T05:09:13.478Z,19.58
2022-08-12T05:14:15.651Z,19.81
2022-08-12T05:19:18.585Z,19.97
2022-08-12T05:24:23.973Z,20.08
2022-08-12T05:30:06.683Z,20.12
2022-08-12T05:34:48.250Z,20.27
2022-08-12T05:39:50.425Z,20.40
2022-08-12T05:44:52.005Z,20.53
2022-08-12T05:49:53.590Z,20.56
2022-08-12T05:54:57.882Z,20.39
2022-08-12T05:59:59.631Z,20.48
2022-08-12T06:05:01.338Z,20.66
2022-08-12T06:10:03.830Z,20.86
2022-08-12T06:15:05.881Z,21.06
2022-08-12T06:20:28.251Z,21.18
2022-08-12T06:25:34.460Z,21.32
2022-08-12T06:30:39.370Z,21.54
2022-08-12T06:35:47.792Z,21.96
2022-08-12T06:41:18.558Z,22.09
2022-08-12T06:46:22.611Z,22.12
2022-08-12T06:51:25.843Z,22.18
2022-08-12T06:56:59.783Z,22.46
2022-08-12T07:01:51.900Z,23.64
2022-08-12T07:06:55.783Z,23.23
2022-08-12T07:11:57.340Z,23.02
2022-08-12T07:17:02.353Z,23.08
2022-08-12T07:22:06.405Z,23.16
2022-08-12T07:27:07.974Z,22.98
2022-08-12T07:32:09.467Z,23.09
2022-08-12T07:37:10.995Z,23.21
2022-08-12T07:42:12.495Z,23.39
2022-08-12T07:47:14.013Z,23.41
2022-08-12T07:52:17.015Z,23.40
2022-08-12T07:57:18.523Z,23.53
2022-08-12T08:02:20.133Z,23.61
2022-08-12T08:07:30.799Z,23.78
2022-08-12T08:12:51.418Z,23.86
2022-08-12T08:18:02.640Z,23.99
2022-08-12T08:23:08.030Z,24.05
2022-08-12T08:28:12.107Z,24.11
2022-08-12T08:33:20.086Z,24.32
2022-08-12T08:38:33.170Z,24.48
2022-08-12T08:43:44.683Z,24.57
2022-08-12T08:48:46.489Z,24.56
2022-08-12T08:53:52.740Z,24.58
2022-08-12T08:58:54.582Z,24.79
2022-08-12T09:09:17.720Z,25.23
2022-08-12T09:14:19.363Z,25.42
2022-08-12T09:19:31.093Z,25.49
2022-08-12T09:24:36.221Z,25.62
2022-08-12T09:30:11.581Z,25.81
2022-08-12T09:34:59.235Z,25.80
2022-08-12T09:41:01.756Z,26.10
2022-08-12T09:45:24.512Z,26.21
2022-08-12T09:50:50.727Z,26.38
2022-08-12T09:56:07.090Z,26.57
2022-08-12T10:01:23.154Z,26.59
2022-08-12T10:06:32.475Z,26.95
2022-08-12T10:12:11.968Z,27.36
2022-08-12T10:17:14.527Z,28.32
2022-08-12T10:22:17.037Z,28.68
2022-08-12T10:28:03.746Z,28.86
2022-08-12T10:33:18.193Z,28.76
2022-08-12T10:38:36.300Z,28.80
2022-08-12T10:43:54.900Z,28.91
2022-08-12T10:49:06.732Z,29.01
2022-08-12T10:54:22.244Z,29.04
2022-08-12T11:00:01.371Z,29.04
2022-08-12T11:05:17.605Z,28.87
2022-08-12T11:10:26.492Z,28.82
2022-08-12T11:16:04.014Z,29.53
2022-08-12T11:20:52.109Z,29.84
2022-08-12T11:25:56.413Z,29.08
2022-08-12T11:31:00.667Z,28.39
2022-08-12T11:36:14.845Z,28.94
2022-08-12T11:41:16.862Z,29.09
2022-08-12T11:46:29.787Z,29.43
2022-08-12T11:51:36.374Z,29.74
2022-08-12T11:56:42.872Z,30.28
2022-08-12T12:02:01.965Z,30.16
2022-08-12T12:07:07.198Z,29.79
2022-08-12T12:12:12.606Z,29.57
2022-08-12T12:17:14.297Z,29.40
2022-08-12T12:22:26.790Z,29.36
2022-08-12T12:27:39.249Z,29.47
2022-08-12T12:32:53.176Z,29.44
2022-08-12T12:38:05.369Z,29.62
2022-08-12T12:43:15.229Z,29.54
2022-08-12T12:48:18.612Z,29.48
2022-08-12T12:54:06.210Z,29.48
2022-08-12T12:58:44.232Z,29.44
2022-08-12T13:03:48.951Z,29.36
2022-08-12T13:08:54.543Z,29.37
2022-08-12T13:14:07.357Z,29.44
2022-08-12T13:19:15.178Z,29.51
2022-08-12T13:24:16.746Z,29.73
2022-08-12T13:29:20.659Z,29.73
2022-08-12T13:34:31.923Z,29.57
2022-08-12T13:39:35.647Z,29.51
2022-08-12T13:44:37.169Z,29.48
2022-08-12T13:49:54.557Z,29.49
2022-08-12T13:54:57.609Z,29.58
2022-08-12T14:00:00.873Z,29.80
2022-08-12T14:05:37.479Z,29.88
2022-08-12T14:10:38.778Z,29.88
2022-08-12T14:15:53.048Z,29.86
2022-08-12T14:20:58.440Z,29.72
2022-08-12T14:26:02.043Z,29.59
2022-08-12T14:31:09.132Z,29.60
2022-08-12T14:36:23.013Z,29.59
2022-08-12T14:41:37.164Z,30.16
2022-08-12T14:46:56.918Z,30.22
2022-08-12T14:52:44.276Z,30.03
2022-08-12T14:58:00.514Z,29.94
2022-08-12T15:02:45.692Z,29.95
2022-08-12T15:07:50.913Z,30.02
2022-08-12T15:12:54.458Z,29.93
2022-08-12T15:18:02.064Z,29.94
2022-08-12T15:23:17.815Z,29.88
2022-08-12T15:28:25.183Z,29.86
2022-08-12T15:33:44.611Z,29.75
2022-08-12T15:38:47.761Z,29.78
2022-08-12T15:44:16.584Z,29.64
2022-08-12T15:49:17.191Z,29.40
2022-08-12T15:54:33.498Z,29.21
2022-08-12T15:59:51.257Z,29.06
2022-08-12T16:04:59.771Z,28.97
2022-08-12T16:10:05.331Z,28.88
2022-08-12T16:15:14.720Z,28.86
2022-08-12T16:20:22.428Z,28.98
2022-08-12T16:26:03.285Z,28.93
2022-08-12T16:30:56.526Z,28.94
2022-08-12T16:35:58.014Z,28.93
2022-08-12T16:41:01.422Z,28.89
2022-08-12T16:46:31.185Z,28.84
2022-08-12T16:51:28.681Z,28.77
2022-08-12T16:56:30.180Z,28.73
2022-08-12T17:01:36.708Z,28.64
2022-08-12T17:06:43.201Z,28.56
2022-08-12T17:11:48.945Z,28.50
2022-08-12T17:16:52.285Z,28.44
2022-08-12T17:22:02.361Z,28.41
2022-08-12T17:27:15.767Z,28.30
2022-08-12T17:32:22.192Z,28.38
2022-08-12T17:37:29.889Z,28.20
2022-08-12T17:42:35.619Z,27.90
2022-08-12T17:47:37.822Z,27.74
2022-08-12T17:52:40.238Z,27.57
2022-08-12T17:57:43.186Z,27.51
2022-08-12T18:02:48.827Z,27.39
2022-08-12T18:07:55.056Z,27.22
2022-08-12T18:13:02.140Z,27.08
2022-08-12T18:18:05.868Z,26.98
2022-08-12T18:23:24.291Z,26.88
2022-08-12T18:28:30.897Z,26.73
2022-08-12T18:33:43.701Z,26.62
2022-08-12T18:38:51.123Z,26.54
2022-08-12T18:44:07.765Z,26.44
2022-08-12T18:49:19.029Z,26.33
2022-08-12T18:54:27.064Z,26.24
2022-08-12T19:00:02.265Z,26.13
2022-08-12T19:04:53.223Z,26.05
2022-08-12T19:09:59.952Z,25.92
2022-08-12T19:15:08.031Z,25.80
2022-08-12T19:20:11.374Z,25.69
2022-08-12T19:25:22.818Z,25.54
2022-08-12T19:31:03.066Z,25.42
2022-08-12T19:36:07.732Z,25.38
2022-08-12T19:41:26.213Z,25.29
2022-08-12T19:46:51.904Z,25.18
2022-08-12T19:51:55.442Z,25.08
2022-08-12T19:56:58.484Z,25.03
2022-08-12T20:02:05.128Z,25.00
2022-08-12T20:07:09.300Z,24.93
2022-08-12T20:12:53.760Z,24.88
2022-08-12T20:17:53.054Z,24.83
2022-08-12T20:22:57.626Z,24.75
2022-08-12T20:28:04.298Z,24.63
2022-08-12T20:33:18.535Z,24.54
2022-08-12T20:38:27.322Z,24.51
2022-08-12T20:43:31.863Z,24.48
2022-08-12T20:48:34.084Z,24.51
2022-08-12T20:53:58.537Z,24.46
2022-08-12T20:58:59.859Z,24.40
2022-08-12T21:04:19.935Z,24.30
2022-08-12T21:09:25.646Z,24.14
2022-08-12T21:14:39.708Z,24.06
2022-08-12T21:19:55.185Z,23.95
2022-08-12T21:24:56.671Z,23.97
2022-08-12T21:29:59.300Z,23.93
2022-08-12T21:35:00.877Z,23.86
2022-08-12T21:40:13.317Z,23.83
2022-08-12T21:45:45.886Z,23.83
2022-08-12T21:50:41.337Z,23.80
2022-08-12T21:55:45.413Z,23.71
2022-08-12T22:00:47.862Z,23.60
2022-08-12T22:06:08.073Z,23.50
2022-08-12T22:11:21.497Z,23.46
2022-08-12T22:16:23.197Z,23.41
2022-08-12T22:21:32.501Z,23.30
2022-08-12T22:26:49.645Z,23.17
2022-08-12T22:31:54.461Z,23.09
2022-08-12T22:36:57.199Z,22.95
2022-08-12T22:42:19.910Z,22.88
2022-08-12T22:47:53.935Z,22.64
2022-08-12T22:53:17.166Z,22.63
2022-08-12T22:58:19.261Z,22.51
2022-08-12T23:03:49.007Z,22.45
2022-08-12T23:08:53.835Z,22.55
2022-08-12T23:14:01.783Z,22.50
2022-08-12T23:19:17.626Z,22.23
2022-08-12T23:24:26.048Z,22.11
2022-08-12T23:29:42.715Z,22.19
2022-08-12T23:34:47.843Z,22.23
2022-08-12T23:40:15.429Z,22.23
2022-08-12T23:45:20.254Z,22.11
2022-08-12T23:50:34.623Z,22.17
2022-08-12T23:55:40.637Z,22.21
